createdAt,value
2018-07-08T00:01:13.146Z,17.80
2018-07-08T00:03:41.337Z,24.10
2018-07-08T00:06:09.580Z,17.80
2018-07-08T00:08:37.785Z,18.50
2018-07-08T00:11:06.455Z,18.70
2018-07-08T00:13:34.645Z,20.33
2018-07-08T00:16:02.880Z,22.13
2018-07-08T00:18:31.120Z,19.90
2018-07-08T00:20:59.307Z,21.80
2018-07-08T00:23:27.803Z,18.17
2018-07-08T00:25:56.347Z,23.50
2018-07-08T00:28:24.529Z,16.17
2018-07-08T00:30:53.042Z,20.67
2018-07-08T00:33:21.204Z,22.33
2018-07-08T00:35:49.761Z,18.37
2018-07-08T00:38:18.163Z,20.77
2018-07-08T00:40:46.427Z,16.00
2018-07-08T00:43:14.627Z,19.63
2018-07-08T00:45:42.967Z,18.87
2018-07-08T00:48:11.233Z,17.00
2018-07-08T00:50:39.409Z,18.27
2018-07-08T00:53:07.896Z,27.23
2018-07-08T00:55:36.394Z,19.07
2018-07-08T00:58:04.815Z,17.37
2018-07-08T01:00:34.202Z,19.90
2018-07-08T01:03:03.998Z,19.30
2018-07-08T01:05:32.625Z,18.63
2018-07-08T01:08:01.410Z,19.57
2018-07-08T01:10:29.717Z,23.07
2018-07-08T01:12:58.338Z,20.73
2018-07-08T01:15:26.931Z,23.17
2018-07-08T01:17:55.597Z,19.17
2018-07-08T01:20:24.160Z,18.80
2018-07-08T01:22:52.841Z,20.10
2018-07-08T01:25:26.428Z,21.57
2018-07-08T01:27:54.652Z,19.93
2018-07-08T01:30:22.848Z,20.67
2018-07-08T01:32:51.433Z,21.57
2018-07-08T01:35:19.651Z,18.80
2018-07-08T01:37:47.934Z,20.23
2018-07-08T01:40:16.415Z,18.90
2018-07-08T01:42:44.588Z,22.23
2018-07-08T01:45:13.072Z,22.40
2018-07-08T01:47:41.301Z,18.90
2018-07-08T01:50:09.854Z,19.60
2018-07-08T01:52:38.157Z,21.33
2018-07-08T01:55:06.329Z,19.00
2018-07-08T01:57:34.916Z,18.13
2018-07-08T02:00:03.189Z,19.13
2018-07-08T02:02:31.388Z,23.73
2018-07-08T02:04:59.934Z,19.80
2018-07-08T02:07:28.116Z,27.17
2018-07-08T02:09:56.367Z,22.20
2018-07-08T02:12:24.559Z,21.13
2018-07-08T02:14:53.177Z,25.40
2018-07-08T02:17:21.478Z,17.17
2018-07-08T02:19:49.772Z,18.80
2018-07-08T02:22:18.465Z,16.50
2018-07-08T02:24:46.640Z,20.23
2018-07-08T02:27:14.892Z,17.73
2018-07-08T02:29:43.136Z,29.37
2018-07-08T02:32:11.975Z,18.60
2018-07-08T02:34:40.172Z,17.33
2018-07-08T02:37:08.416Z,25.20
2018-07-08T02:39:36.662Z,19.60
2018-07-08T02:42:04.848Z,20.80
2018-07-08T02:44:33.051Z,16.20
2018-07-08T02:47:01.621Z,19.00
2018-07-08T02:49:30.335Z,20.53
2018-07-08T02:51:58.470Z,17.07
2018-07-08T02:54:26.665Z,15.80
2018-07-08T02:56:54.852Z,19.33
2018-07-08T02:59:23.408Z,18.23
2018-07-08T03:01:51.570Z,17.23
2018-07-08T03:04:20.088Z,15.20
2018-07-08T03:06:48.239Z,16.23
2018-07-08T03:09:16.821Z,17.33
2018-07-08T03:11:44.973Z,17.00
2018-07-08T03:14:13.299Z,17.33
2018-07-08T03:16:41.872Z,18.17
2018-07-08T03:19:10.062Z,16.63
2018-07-08T03:21:38.346Z,17.73
2018-07-08T03:24:06.932Z,16.83
2018-07-08T03:26:35.106Z,23.13
2018-07-08T03:29:03.686Z,16.20
2018-07-08T03:31:31.876Z,19.83
2018-07-08T03:34:00.098Z,16.03
2018-07-08T03:36:28.570Z,19.30
2018-07-08T03:38:56.745Z,18.43
2018-07-08T03:41:24.990Z,18.60
2018-07-08T03:43:53.637Z,15.20
2018-07-08T03:46:21.850Z,16.63
2018-07-08T03:48:50.370Z,16.93
2018-07-08T03:51:18.520Z,16.17
2018-07-08T03:53:47.044Z,19.03
2018-07-08T03:56:15.211Z,18.17
2018-07-08T03:58:43.771Z,17.50
2018-07-08T04:01:11.946Z,17.13
2018-07-08T04:03:40.478Z,18.93
2018-07-08T04:06:08.623Z,18.43
2018-07-08T04:08:37.102Z,19.57
2018-07-08T04:11:05.278Z,17.23
2018-07-08T04:13:33.433Z,16.80
2018-07-08T04:16:01.628Z,20.00
2018-07-08T04:18:30.129Z,24.03
2018-07-08T04:20:58.780Z,30.73
2018-07-08T04:23:27.029Z,18.70
2018-07-08T04:25:55.329Z,21.97
2018-07-08T04:28:23.830Z,20.53
2018-07-08T04:30:52.075Z,16.63
2018-07-08T04:33:20.221Z,25.37
2018-07-08T04:35:49.027Z,25.17
2018-07-08T04:38:17.172Z,18.40
2018-07-08T04:40:45.459Z,19.07
2018-07-08T04:43:14.001Z,21.77
2018-07-08T04:45:42.178Z,21.50
2018-07-08T04:48:10.331Z,18.40
2018-07-08T04:50:38.510Z,17.50
2018-07-08T04:53:06.688Z,19.90
2018-07-08T04:55:35.214Z,20.67
2018-07-08T04:58:03.505Z,18.13
2018-07-08T05:00:32.005Z,19.87
2018-07-08T05:03:00.522Z,20.33
2018-07-08T05:05:28.809Z,20.83
2018-07-08T05:07:57.271Z,17.73
2018-07-08T05:10:25.494Z,17.70
2018-07-08T05:12:53.978Z,21.63
2018-07-08T05:15:22.229Z,20.80
2018-07-08T05:17:50.754Z,19.00
2018-07-08T05:20:18.970Z,27.20
2018-07-08T05:22:47.131Z,23.00
2018-07-08T05:25:15.686Z,26.00
2018-07-08T05:27:44.226Z,19.97
2018-07-08T05:30:12.465Z,22.37
2018-07-08T05:32:40.607Z,18.20
2018-07-08T05:35:08.878Z,19.23
2018-07-08T05:37:37.418Z,21.03
2018-07-08T05:40:05.691Z,17.53
2018-07-08T05:42:33.889Z,19.67
2018-07-08T05:45:02.405Z,18.27
2018-07-08T05:47:30.646Z,19.90
2018-07-08T05:49:59.032Z,17.97
2018-07-08T05:52:27.500Z,20.40
2018-07-08T05:54:55.775Z,18.33
2018-07-08T05:57:25.309Z,18.17
2018-07-08T05:59:53.594Z,21.03
2018-07-08T06:02:22.177Z,19.20
2018-07-08T06:04:50.895Z,18.93
2018-07-08T06:07:19.085Z,17.73
2018-07-08T06:09:47.273Z,16.13
2018-07-08T06:12:15.776Z,17.97
2018-07-08T06:14:44.041Z,16.77
2018-07-08T06:17:12.376Z,15.60
2018-07-08T06:19:40.561Z,14.47
2018-07-08T06:22:09.145Z,14.07
2018-07-08T06:24:37.495Z,12.97
2018-07-08T06:27:05.747Z,13.67
2018-07-08T06:29:33.907Z,11.23
2018-07-08T06:32:02.539Z,12.47
2018-07-08T06:34:30.806Z,11.90
2018-07-08T06:36:59.107Z,15.10
2018-07-08T06:39:27.299Z,9.47
2018-07-08T06:41:55.930Z,8.40
2018-07-08T06:44:24.229Z,7.83
2018-07-08T06:46:52.656Z,12.10
2018-07-08T06:49:20.823Z,9.93
2018-07-08T06:51:48.995Z,7.47
2018-07-08T06:54:17.183Z,7.10
2018-07-08T06:56:45.735Z,9.10
2018-07-08T06:59:13.943Z,7.90
2018-07-08T07:01:42.438Z,6.50
2018-07-08T07:04:10.930Z,6.60
2018-07-08T07:06:39.298Z,9.53
2018-07-08T07:09:08.572Z,6.83
2018-07-08T07:11:37.340Z,8.23
2018-07-08T07:14:05.522Z,6.07
2018-07-08T07:16:34.418Z,7.67
2018-07-08T07:19:02.637Z,7.37
2018-07-08T07:21:30.803Z,7.00
2018-07-08T07:23:58.966Z,6.33
2018-07-08T07:26:27.173Z,7.93
2018-07-08T07:28:55.739Z,5.47
2018-07-08T07:31:23.937Z,7.10
2018-07-08T07:33:52.498Z,6.57
2018-07-08T07:36:21.740Z,7.13
2018-07-08T07:38:50.203Z,7.97
2018-07-08T07:41:18.851Z,6.50
2018-07-08T07:43:47.101Z,8.27
2018-07-08T07:46:15.633Z,6.40
2018-07-08T07:48:44.753Z,10.80
2018-07-08T07:51:13.302Z,10.73
2018-07-08T07:53:41.892Z,7.80
2018-07-08T07:56:10.090Z,6.37
2018-07-08T07:58:38.627Z,8.40
2018-07-08T08:01:07.525Z,5.60
2018-07-08T08:03:35.782Z,8.33
2018-07-08T08:06:03.993Z,5.40
2018-07-08T08:08:32.233Z,8.60
2018-07-08T08:11:00.563Z,6.10
2018-07-08T08:13:28.817Z,8.10
2018-07-08T08:15:56.996Z,9.30
2018-07-08T08:18:25.510Z,5.20
2018-07-08T08:20:55.130Z,5.93
2018-07-08T08:23:23.356Z,5.53
2018-07-08T08:25:51.957Z,6.97
2018-07-08T08:28:20.250Z,6.40
2018-07-08T08:30:48.436Z,8.87
2018-07-08T08:33:17.040Z,5.17
2018-07-08T08:35:45.243Z,4.83
2018-07-08T08:38:13.856Z,6.90
2018-07-08T08:40:42.141Z,8.83
2018-07-08T08:43:11.394Z,6.50
2018-07-08T08:45:40.100Z,5.20
2018-07-08T08:48:08.329Z,5.70
2018-07-08T08:50:36.549Z,11.57
2018-07-08T08:53:05.249Z,6.10
2018-07-08T08:55:33.394Z,3.87
2018-07-08T08:58:01.912Z,4.53
2018-07-08T09:00:30.059Z,4.53
2018-07-08T09:02:58.629Z,4.27
2018-07-08T09:05:26.850Z,3.50
2018-07-08T09:07:55.026Z,7.10
2018-07-08T09:10:23.563Z,6.07
2018-07-08T10:43:51.858Z,4.70
2018-07-08T10:46:20.065Z,2.77
2018-07-08T10:48:48.339Z,10.50
2018-07-08T10:51:16.566Z,4.17
2018-07-08T10:53:45.089Z,7.93
2018-07-08T10:56:13.303Z,6.23
2018-07-08T10:58:41.904Z,10.87
2018-07-08T11:01:10.107Z,4.10
2018-07-08T11:03:38.596Z,3.53
2018-07-08T11:06:06.815Z,8.73
2018-07-08T11:08:35.520Z,6.90
2018-07-08T11:11:03.735Z,11.10
2018-07-08T11:13:31.869Z,8.67
2018-07-08T11:16:01.422Z,3.80
2018-07-08T11:18:30.161Z,7.77
2018-07-08T11:20:58.424Z,5.73
2018-07-08T11:23:26.662Z,8.03
2018-07-08T11:25:54.873Z,10.33
2018-07-08T11:28:23.376Z,7.03
2018-07-08T11:30:51.937Z,4.10
2018-07-08T11:33:20.111Z,3.30
2018-07-08T11:35:48.332Z,8.00
2018-07-08T11:38:17.048Z,3.37
2018-07-08T11:40:45.404Z,6.60
2018-07-08T11:43:13.593Z,7.10
2018-07-08T11:45:41.810Z,3.07
2018-07-08T11:48:10.382Z,3.70
2018-07-08T11:50:38.947Z,4.00
2018-07-08T11:53:07.142Z,5.23
2018-07-08T11:55:35.416Z,3.20
2018-07-08T11:58:03.626Z,5.50
2018-07-08T12:00:32.135Z,3.47
2018-07-08T12:03:00.699Z,3.63
2018-07-08T12:05:28.866Z,4.03
2018-07-08T12:07:57.228Z,2.83
2018-07-08T12:10:25.846Z,2.50
2018-07-08T12:12:54.066Z,3.27
2018-07-08T12:15:22.289Z,3.53
2018-07-08T12:17:50.855Z,6.10
2018-07-08T12:20:19.057Z,4.93
2018-07-08T12:22:47.247Z,3.50
2018-07-08T12:25:15.883Z,3.43
2018-07-08T12:27:44.134Z,3.73
2018-07-08T12:30:12.322Z,5.10
2018-07-08T12:32:40.890Z,5.23
2018-07-08T12:35:09.069Z,4.77
2018-07-08T12:37:37.754Z,4.33
2018-07-08T12:40:06.150Z,4.53
2018-07-08T12:42:34.381Z,3.67
2018-07-08T12:45:02.587Z,4.20
2018-07-08T12:47:30.801Z,3.33
2018-07-08T12:49:58.989Z,3.23
2018-07-08T12:52:27.511Z,5.33
2018-07-08T12:54:55.733Z,5.03
2018-07-08T12:57:24.249Z,4.00
2018-07-08T12:59:52.461Z,5.00
2018-07-08T13:02:21.136Z,2.90
2018-07-08T13:04:49.403Z,2.80
2018-07-08T13:07:48.150Z,2.33
2018-07-08T13:10:16.766Z,2.67
2018-07-08T13:12:44.966Z,5.60
2018-07-08T13:15:13.175Z,6.80
2018-07-08T13:17:41.718Z,11.17
2018-07-08T13:20:09.933Z,3.23
2018-07-08T13:22:38.365Z,3.97
2018-07-08T13:25:06.626Z,5.10
2018-07-08T13:27:34.914Z,3.00
2018-07-08T13:30:03.538Z,2.80
2018-07-08T13:32:31.754Z,4.50
2018-07-08T13:35:00.264Z,4.13
2018-07-08T13:37:28.437Z,3.20
2018-07-08T13:39:56.957Z,2.83
2018-07-08T13:42:25.171Z,5.43
2018-07-08T13:44:53.337Z,3.90
2018-07-08T13:47:21.671Z,2.67
2018-07-08T13:49:50.139Z,3.50
2018-07-08T13:52:18.328Z,6.27
2018-07-08T13:54:46.927Z,2.63
2018-07-08T13:57:15.462Z,3.00
2018-07-08T13:59:43.720Z,5.17
2018-07-08T14:02:12.063Z,7.83
2018-07-08T14:04:40.672Z,4.67
2018-07-08T14:10:52.669Z,8.10
2018-07-08T14:16:08.175Z,5.37
2018-07-08T14:18:37.139Z,6.90
2018-07-08T14:21:05.473Z,2.90
2018-07-08T14:23:33.866Z,4.90
2018-07-08T14:26:02.204Z,1.77
2018-07-08T14:28:33.271Z,2.07
2018-07-08T14:31:01.978Z,2.53
2018-07-08T14:33:30.505Z,2.60
2018-07-08T14:35:59.046Z,2.20
2018-07-08T14:38:31.275Z,5.43
2018-07-08T14:41:00.103Z,3.00
2018-07-08T14:43:28.574Z,2.53
2018-07-08T14:51:46.346Z,2.23
2018-07-08T14:57:14.527Z,4.90
2018-07-08T15:25:22.066Z,2.40
2018-07-08T15:44:20.134Z,4.20
2018-07-08T15:46:48.673Z,5.53
2018-07-08T15:49:17.206Z,2.70
2018-07-08T15:51:45.419Z,7.30
2018-07-08T15:54:14.015Z,3.07
2018-07-08T15:56:42.604Z,3.80
2018-07-08T15:59:11.131Z,3.43
2018-07-08T16:01:39.394Z,3.10
2018-07-08T16:04:07.994Z,2.37
2018-07-08T16:06:36.520Z,2.80
2018-07-08T16:09:05.729Z,3.20
2018-07-08T16:11:35.315Z,4.80
2018-07-08T16:14:02.561Z,3.93
2018-07-08T16:16:31.102Z,6.50
2018-07-08T16:18:59.782Z,4.30
2018-07-08T16:21:28.647Z,3.23
2018-07-08T16:23:56.841Z,2.13
2018-07-08T16:26:25.401Z,2.83
2018-07-08T16:28:53.963Z,4.47
2018-07-08T16:31:22.804Z,2.90
2018-07-08T16:33:51.302Z,2.27
